Airfield :







YOU CAN JOIN US ON...

 
LOGIN :

Register | Disclaimer

   EN    FR    IT 

 









Legend :    VFR   Marginal VFR   IFR   Intensive IFR   Very Intensive IFR
Visi :
Ceiling :
>= 8 km
>= 3000ft
5 to 8 km
1000 to 3000 ft
1500m to 5 km
500 to 1000 ft
800 to 1500m
200 to 500 ft
< 800m
< 200 ft
Symbols :   Thunderstorms  Fog  Heavy snow  Heavy precipitations  Wind > 20 kt






- Airport Elevation : 166 ft
- IATA code : YCX


CYCX - Gagetown Heliport

CURRENT METAR :
  • 140600Z AUTO 23006KT 9SM FEW094 M10/M12 A3036 RMK SLP283

EXPIRED METARs :
  • 140500Z AUTO 27007KT 9SM FEW097 M08/M12 A3031 RMK SLP268
  • 140400Z AUTO 27008KT 9SM CLR M08/M12 A3028 RMK SLP257

TAF TAF CYCX
Valid from the 14 at 00:00 until the 14 at 12:00 UTC


132330Z 1400/1412 30010KT P6SM SKC RMK NXT FCST BY 140600Z



MET'MAP, your aeronautical weather chart ! - Copyright ORBIFLY December 2007 - Disclaimer

ORBIFLY MET'MAP TEAM :

Programming & Development : Alexandra Zaïnal
Concept & Development : Baudouin d'Aumeries
Co-Development & Prog : Marc-Olivier Méhu
Technical & hardware support : Manuel Goepfert

Contact : metmap@orbifly.com




SOURCES & CREDITS :

   NOAA